Latest Weather Observations for Nhill Aerodrome

IDV60801

Issued at 6:31 pm EDT Friday 12 February 2016 (issued every 30 minutes, with the page automatically refreshed every 10 minutes)

About weather observations | Map of weather stations | Latest weather observations for VIC | Other Formats
Station Details ID: 078015 Name: NHILL AERODROME Lat: -36.31 Lon: 141.65 Height: 138.9 m
Data from the previous 72 hours. | See also: Recent months at Nhill Aerodrome
Date/Time
EDT
Temp
°C
App
Temp
°C
Dew
Point
Rel
Hum
%
Delta-T
°C
Wind Press
QNH
hPa
Press
MSL
hPa
Rain
since 9 am
mm
Dir
 
Spd
km/h
Gust
km/h
Spd
kts
Gust
kts
12/06:30pm 33.0 27.1 2.0 14 15.7 W 22 32 12 17 1010.5 1010.0 0.0
12/06:00pm 33.3 28.2 4.1 16 15.4 W 20 37 11 20 1010.7 1010.2 0.0
12/05:30pm 33.4 28.5 4.2 16 15.4 WSW 19 26 10 14 1010.8 1010.3 0.0
12/05:00pm 33.1 28.2 3.9 16 15.3 W 19 26 10 14 1011.1 1010.6 0.0
12/04:30pm 33.6 29.3 5.2 17 15.2 WNW 17 41 9 22 1011.1 1010.6 0.0
12/04:00pm 33.6 28.4 2.4 14 16.0 W 19 26 10 14 1011.6 1011.1 0.0
12/03:30pm 32.3 28.6 4.2 17 14.7 W 13 20 7 11 1011.9 1011.4 0.0
12/03:00pm 31.4 28.1 6.5 21 13.5 NNW 13 20 7 11 1012.4 1011.9 0.0
12/02:30pm 31.4 27.6 5.8 20 13.7 NW 15 26 8 14 1012.9 1012.4 0.0
12/02:00pm 30.4 27.5 8.2 25 12.3 WNW 13 22 7 12 1013.5 1012.9 0.0
12/01:30pm 29.1 27.1 8.7 28 11.3 NNW 9 17 5 9 1013.8 1013.2 0.0
12/01:00pm 28.8 27.7 10.0 31 10.6 NW 6 11 3 6 1014.2 1013.6 0.0
12/12:30pm 28.4 27.3 10.6 33 10.1 ESE 7 13 4 7 1014.7 1014.1 0.0
12/12:00pm 26.8 25.9 10.5 36 9.2 E 6 13 3 7 1014.9 1014.3 0.0
12/11:30am 26.3 24.4 10.5 37 8.9 NE 11 17 6 9 1015.2 1014.6 0.0
12/11:00am 25.1 22.6 10.9 41 8.0 ENE 15 24 8 13 1015.4 1014.8 0.0
12/10:30am 24.1 21.1 10.7 43 7.5 E 17 22 9 12 1015.6 1015.0 0.0
12/10:00am 22.8 19.3 10.9 47 6.6 E 20 26 11 14 1015.7 1015.2 0.0
12/09:30am 21.5 17.3 11.2 52 5.7 ESE 24 30 13 16 1015.8 1015.3 0.0
12/09:00am 19.7 15.4 10.9 57 4.8 E 24 30 13 16 1015.7 1015.2 0.0
12/08:30am 17.7 14.4 11.0 65 3.6 ESE 19 26 10 14 1015.8 1015.3 0.0
12/08:00am 15.4 13.9 10.6 73 2.6 SE 9 11 5 6 1015.9 1015.4 0.0
12/07:30am 13.8 11.7 9.8 77 2.1 SSE 11 13 6 7 1015.7 1015.2 0.0
12/07:00am 13.4 11.6 9.6 78 2.0 SSE 9 13 5 7 1015.7 1015.2 0.0
12/06:30am 14.9 12.6 10.5 75 2.3 SE 13 20 7 11 1015.1 1014.5 0.0
12/06:00am 13.4 11.3 9.8 79 1.9 SE 11 13 6 7 1014.7 1014.1 0.0
12/05:30am 13.9 12.2 9.9 77 2.1 SE 9 11 5 6 1014.5 1013.9 0.0
12/05:00am 14.2 12.5 9.8 75 2.3 SE 9 11 5 6 1014.4 1013.8 0.0
12/04:30am 14.6 12.6 10.0 74 2.4 SSE 11 13 6 7 1014.5 1013.9 0.0
12/04:00am 15.4 13.0 10.2 71 2.7 SSE 13 15 7 8 1014.6 1014.0 0.0
12/03:30am 15.9 13.2 10.4 70 2.9 SSE 15 17 8 9 1014.7 1014.1 0.0
12/03:00am 16.4 14.2 10.7 69 3.1 SSE 13 15 7 8 1014.9 1014.3 0.0
12/02:30am 17.0 14.4 10.8 67 3.3 SSE 15 17 8 9 1015.2 1014.6 0.0
12/02:00am 17.6 14.7 10.9 65 3.6 SSE 17 20 9 11 1015.2 1014.6 0.0
12/01:30am 18.1 14.9 11.2 64 3.8 SSE 19 22 10 12 1015.4 1014.8 0.0
12/01:00am 18.7 16.0 11.8 64 3.8 SSE 17 22 9 12 1015.3 1014.7 0.0
12/12:30am 19.1 15.9 11.9 63 4.0 SSE 20 28 11 15 1015.5 1014.9 0.0
12/12:00am 19.9 15.6 11.9 60 4.5 SSE 26 33 14 18 1015.4 1014.8 0.0
 
Date/Time
EDT
Temp
°C
App
Temp
°C
Dew
Point
Rel
Hum
%
Delta-T
°C
Wind Press
QNH
hPa
Press
MSL
hPa
Rain
since 9 am
mm
Dir
 
Spd
km/h
Gust
km/h
Spd
kts
Gust
kts
11/11:30pm 20.9 16.2 12.1 57 5.0 SSE 28 35 15 19 1015.4 1014.8 0.0
11/11:00pm 22.0 16.5 12.0 53 5.7 SSE 32 39 17 21 1015.4 1014.8 0.0
11/10:30pm 23.3 18.2 12.0 49 6.4 SE 30 43 16 23 1015.2 1014.6 0.0
11/10:00pm 24.8 19.9 11.4 43 7.6 SSE 28 39 15 21 1014.7 1014.1 0.0
11/09:30pm 26.5 22.6 8.5 32 9.8 S 19 24 10 13 1014.3 1013.7 0.0
11/09:00pm 27.3 23.4 8.7 31 10.2 S 19 22 10 12 1013.9 1013.3 0.0
11/08:30pm 28.2 24.3 8.5 29 10.8 S 19 24 10 13 1013.6 1013.0 0.0
11/08:00pm 29.2 25.6 8.3 27 11.5 S 17 20 9 11 1013.3 1012.7 0.0
11/07:30pm 30.3 26.3 8.1 25 12.3 S 19 26 10 14 1012.9 1012.4 0.0
11/07:00pm 30.5 26.3 8.3 25 12.3 S 20 28 11 15 1012.7 1012.2 0.0
11/06:30pm 30.6 26.3 7.7 24 12.6 S 20 28 11 15 1012.7 1012.2 0.0
11/06:00pm 30.8 27.5 7.9 24 12.6 S 15 24 8 13 1012.7 1012.2 0.0
11/05:30pm 31.1 26.7 7.5 23 13.0 SSW 20 32 11 17 1012.8 1012.3 0.0
11/05:00pm 31.3 26.7 6.4 21 13.4 SSW 20 30 11 16 1012.8 1012.3 0.0
11/04:30pm 31.4 27.3 7.8 23 13.0 SSE 19 30 10 16 1013.0 1012.5 0.0
11/04:00pm 30.7 27.1 8.4 25 12.4 S 17 26 9 14 1013.2 1012.6 0.0
11/03:30pm 30.4 27.1 8.2 25 12.3 SSW 15 22 8 12 1013.7 1013.1 0.0
11/03:00pm 29.7 27.2 8.2 26 11.8 SSW 11 22 6 12 1014.0 1013.4 0.0
11/02:30pm 29.4 25.7 7.9 26 11.8 WSW 17 28 9 15 1014.5 1013.9 0.0
11/02:00pm 28.6 25.7 8.3 28 11.1 SSE 13 20 7 11 1014.7 1014.1 0.0
11/01:30pm 27.3 24.3 7.7 29 10.6 S 13 20 7 11 1015.1 1014.5 0.0
11/01:00pm 26.4 24.6 9.3 34 9.4 SSW 9 15 5 8 1015.4 1014.8 0.0
11/12:30pm 25.1 23.2 9.0 36 8.8 ESE 9 15 5 8 1015.7 1015.2 0.0
11/12:00pm 24.3 23.0 9.1 38 8.3 S 6 15 3 8 1016.2 1015.7 0.0
11/11:30am 23.0 21.4 10.1 44 7.1 ESE 9 11 5 6 1016.3 1015.8 0.0
11/11:00am 22.6 21.6 11.0 48 6.5 ESE 7 13 4 7 1016.7 1016.2 0.0
11/10:30am 20.5 19.7 11.7 57 4.9 SSE 7 13 4 7 1016.8 1016.3 0.0
11/10:00am 19.5 18.3 11.5 60 4.4 SE 9 17 5 9 1017.0 1016.5 0.0
11/09:30am 18.4 16.3 11.2 63 3.9 SE 13 17 7 9 1016.9 1016.4 0.0
11/09:00am 17.0 14.9 11.3 69 3.1 SSE 13 17 7 9 1016.7 1016.2 0.0
11/08:30am 16.1 13.7 11.5 74 2.5 S 15 19 8 10 1016.4 1015.9 0.0
11/08:00am 14.9 12.8 11.3 79 1.9 S 13 15 7 8 1015.9 1015.4 0.0
11/07:30am 13.6 12.2 10.8 83 1.5 S 9 13 5 7 1015.7 1015.2 0.0
11/07:00am 13.1 11.2 10.5 84 1.4 SSE 11 13 6 7 1015.4 1014.8 0.0
11/06:30am 13.6 11.7 10.6 82 1.6 SSE 11 13 6 7 1015.0 1014.4 0.0
11/06:00am 14.1 11.5 10.7 80 1.8 S 15 17 8 9 1014.9 1014.3 0.0
11/05:30am 14.6 12.1 11.0 79 1.9 SSE 15 19 8 10 1014.5 1013.9 0.0
11/05:00am 14.8 12.6 10.8 77 2.1 SSE 13 17 7 9 1014.3 1013.7 0.0
11/04:30am 15.2 12.2 10.8 75 2.3 SSE 17 20 9 11 1014.1 1013.5 0.0
11/04:00am 15.6 13.0 10.8 73 2.6 SSE 15 19 8 10 1014.1 1013.5 0.0
11/03:30am 16.2 13.2 10.7 70 2.9 SSE 17 20 9 11 1014.1 1013.5 0.0
11/03:00am 16.8 13.4 10.6 67 3.3 SSE 19 24 10 13 1014.1 1013.5 0.0
11/02:30am 17.4 14.0 10.5 64 3.7 SSE 19 22 10 12 1014.4 1013.8 0.0
11/02:00am 18.3 14.9 10.4 60 4.3 SSE 19 24 10 13 1014.3 1013.7 0.0
11/01:30am 19.2 15.5 10.2 56 4.9 SSE 20 26 11 14 1014.4 1013.8 0.0
11/01:00am 20.2 15.7 10.0 52 5.5 SSE 24 30 13 16 1014.5 1013.9 0.0
11/12:30am 21.1 16.1 9.7 48 6.2 SSE 26 33 14 18 1014.4 1013.8 0.0
11/12:00am 21.8 17.9 9.3 45 6.7 SSE 20 28 11 15 1014.3 1013.7 0.0
 
Date/Time
EDT
Temp
°C
App
Temp
°C
Dew
Point
Rel
Hum
%
Delta-T
°C
Wind Press
QNH
hPa
Press
MSL
hPa
Rain
since 9 am
mm
Dir
 
Spd
km/h
Gust
km/h
Spd
kts
Gust
kts
10/11:30pm 22.3 18.3 8.1 40 7.5 SSE 19 22 10 12 1014.4 1013.8 0.0
10/11:00pm 22.8 18.5 7.0 36 8.2 SSE 19 22 10 12 1014.4 1013.8 0.0
10/10:30pm 23.7 19.7 6.5 33 8.9 SE 17 22 9 12 1014.2 1013.6 0.0
10/10:00pm 24.4 20.7 6.2 31 9.4 SSE 15 17 8 9 1014.0 1013.4 0.0
10/09:30pm 26.3 21.7 5.8 27 10.6 SSE 19 22 10 12 1013.8 1013.2 0.0
10/09:00pm 27.1 23.0 6.0 26 11.0 S 17 20 9 11 1013.6 1013.0 0.0
10/08:30pm 28.6 23.8 5.5 23 12.1 S 20 26 11 14 1013.4 1012.8 0.0
10/08:00pm 30.0 24.5 6.0 22 12.8 SSE 24 32 13 17 1013.0 1012.5 0.0
10/07:30pm 30.8 25.2 5.3 20 13.5 S 24 30 13 16 1012.7 1012.2 0.0
10/07:00pm 31.5 25.8 5.1 19 14.0 SSW 24 30 13 16 1012.4 1011.9 0.0
10/06:30pm 32.1 26.4 4.8 18 14.4 SSW 24 33 13 18 1012.3 1011.8 0.0
10/06:00pm 32.3 26.3 3.3 16 15.0 S 24 33 13 18 1012.1 1011.6 0.0
10/05:30pm 32.7 27.1 3.6 16 15.1 SSW 22 30 12 16 1012.0 1011.5 0.0
10/05:00pm 32.5 26.6 -0.5 12 16.0 S 20 33 11 18 1012.0 1011.5 0.0
10/04:30pm 32.8 26.4 -1.5 11 16.4 SSW 22 46 12 25 1012.0 1011.5 0.0
10/04:00pm 32.5 26.5 -1.7 11 16.3 S 20 32 11 17 1012.3 1011.8 0.0
10/03:30pm 32.1 27.1 -0.9 12 15.8 SSW 15 28 8 15 1012.5 1012.0 0.0
10/03:00pm 31.6 26.8 -0.1 13 15.4 SSW 15 22 8 12 1012.9 1012.4 0.0
10/02:30pm 31.5 27.0 -0.2 13 15.3 WSW 13 22 7 12 1013.3 1012.7 0.0
10/02:00pm 30.8 25.5 -0.8 13 15.1 SW 17 24 9 13 1013.7 1013.1 0.0
10/01:30pm 30.3 25.6 0.8 15 14.4 WSW 15 26 8 14 1014.0 1013.4 0.0
10/01:00pm 30.3 26.5 4.1 19 13.5 SSW 13 26 7 14 1014.3 1013.7 0.0
10/12:30pm 29.0 25.3 4.5 21 12.6 SW 13 20 7 11 1014.7 1014.1 0.0
10/12:00pm 28.1 24.1 5.0 23 11.9 SSW 15 22 8 12 1015.2 1014.6 0.0
10/11:30am 26.9 23.6 6.3 27 10.8 S 13 20 7 11 1015.4 1014.8 0.0
10/11:00am 26.1 23.0 7.2 30 10.0 SE 13 19 7 10 1015.5 1014.9 0.0
10/10:30am 24.2 22.0 9.4 39 8.1 SSE 11 15 6 8 1015.7 1015.2 0.0
10/10:00am 22.2 20.5 10.0 46 6.7 SE 9 13 5 7 1015.8 1015.3 0.0
10/09:30am 20.1 18.3 10.8 55 5.1 SE 11 15 6 8 1015.8 1015.3 0.0
10/09:00am 18.3 16.1 10.9 62 4.0 S 13 19 7 10 1015.8 1015.3 0.0
10/08:30am 16.3 14.0 10.6 69 3.0 SSE 13 15 7 8 1015.7 1015.2 0.0
10/08:00am 14.9 12.6 10.3 74 2.4 SSE 13 17 7 9 1015.4 1014.8 0.0
10/07:30am 13.8 11.8 10.0 78 2.0 S 11 15 6 8 1015.2 1014.6 0.0
10/07:00am 13.0 11.2 9.4 79 1.8 SE 9 13 5 7 1014.6 1014.0 0.0
10/06:30am 13.6 11.1 9.8 78 2.0 SSE 13 15 7 8 1014.5 1013.9 0.0
10/06:00am 13.9 11.4 9.7 76 2.2 SSE 13 17 7 9 1014.3 1013.7 0.0
10/05:30am 14.2 11.6 9.4 73 2.5 SE 13 15 7 8 1014.0 1013.4 0.0
10/05:00am 15.0 12.5 9.8 71 2.7 S 13 17 7 9 1014.0 1013.4 0.0
10/04:30am 15.2 12.3 9.6 69 2.9 S 15 17 8 9 1014.2 1013.6 0.0
10/04:00am 15.3 12.7 9.4 68 3.1 SSE 13 15 7 8 1014.4 1013.8 0.0
10/03:30am 16.2 13.7 9.6 65 3.5 SSE 13 17 7 9 1014.6 1014.0 0.0
10/03:00am 16.8 14.2 9.5 62 3.8 SSE 13 15 7 8 1014.5 1013.9 0.0
10/02:30am 18.1 14.4 9.5 57 4.6 S 19 22 10 12 1014.8 1014.2 0.0
10/02:00am 18.2 15.6 9.5 57 4.6 SSE 13 17 7 9 1014.7 1014.1 0.0
10/01:30am 18.8 16.6 9.3 54 5.0 SSE 11 13 6 7 1014.8 1014.2 0.0
10/01:00am 20.1 16.8 9.7 51 5.6 SSE 17 20 9 11 1015.1 1014.5 0.0
10/12:30am 21.0 17.8 9.9 49 6.0 SSE 17 20 9 11 1015.2 1014.6 0.0
10/12:00am 22.4 18.8 9.9 45 6.8 SSE 19 24 10 13 1015.4 1014.8 0.0
 
Date/Time
EDT
Temp
°C
App
Temp
°C
Dew
Point
Rel
Hum
%
Delta-T
°C
Wind Press
QNH
hPa
Press
MSL
hPa
Rain
since 9 am
mm
Dir
 
Spd
km/h
Gust
km/h
Spd
kts
Gust
kts
09/11:30pm 23.4 20.0 9.0 40 7.8 SSE 17 26 9 14 1015.5 1014.9 0.0
09/11:00pm 23.4 19.3 7.9 37 8.2 S 19 20 10 11 1015.7 1015.2 0.0
09/10:30pm 24.0 20.6 5.8 31 9.3 S 13 17 7 9 1015.5 1014.9 0.0
09/10:00pm 24.9 22.1 5.2 28 10.0 SSW 9 15 5 8 1015.4 1014.8 0.0
09/09:30pm 26.0 22.7 4.5 25 10.9 SSW 11 13 6 7 1015.2 1014.6 0.0
09/09:00pm 27.6 23.9 4.6 23 11.8 SW 13 17 7 9 1015.0 1014.4 0.0
09/08:30pm 29.3 25.3 4.7 21 12.8 SSW 15 17 8 9 1014.9 1014.3 0.0
09/08:00pm 31.5 27.9 5.1 19 14.0 SSW 13 19 7 10 1014.9 1014.3 0.0
09/07:30pm 32.2 28.4 4.1 17 14.7 W 13 20 7 11 1014.8 1014.2 0.0
09/07:00pm 32.6 29.3 4.4 17 14.8 W 11 17 6 9 1014.9 1014.3 0.0

Other Formats:

Comma delimited format used in spreadsheet applications
http://www.bom.gov.au/fwo/IDV60801/IDV60801.94827.axf

JavaScript Object Notation format (JSON) in row-major order
http://www.bom.gov.au/fwo/IDV60801/IDV60801.94827.json